Address 0x6ada8e0d6345b6bd8a7bd8af43f35c51e967895e 1

 
 
Txn Hash Method
Block
From
To
Value [Txn Fee]
0x160e6cf687dc079653ce3c918576445e11a459f90753c1df985ed0c1a519fa2bTransfer113056742021-09-28 10:45:057 mins ago0x6ada8e0d6345b6bd8a7bd8af43f35c51e967895eSELF0x6ada8e0d6345b6bd8a7bd8af43f35c51e967895e0 BNB0.00011655
0x904ae900220420821fc988c8271c6510315d4f4b49b96254da1b85faadf4f0610x1de9c881113056542021-09-28 10:44:058 mins ago0x6ada8e0d6345b6bd8a7bd8af43f35c51e967895eOUT 0x16d12bbdd19bf74290afc72feeedc726a1904da90 BNB0.000184250045
0xefa0d22abd24c71b0919a71eba628c91099088fa31aa860331ee288ff7f6cc00Transfer113056222021-09-28 10:42:2310 mins ago0x6ada8e0d6345b6bd8a7bd8af43f35c51e967895eSELF0x6ada8e0d6345b6bd8a7bd8af43f35c51e967895e0 BNB0.00011655
0xe91a766c551d4523aa7bddbb764e561e710599e772574731ce345e2394005e29Transfer113055992021-09-28 10:41:0511 mins ago0x6ada8e0d6345b6bd8a7bd8af43f35c51e967895eSELF0x6ada8e0d6345b6bd8a7bd8af43f35c51e967895e0 BNB0.00011655
0x29512c84ebfc128819b9b760e6437064ecab478e2242772c7e18a48d37c2bb48Transfer113055602021-09-28 10:39:0013 mins ago0x6ada8e0d6345b6bd8a7bd8af43f35c51e967895eSELF0x6ada8e0d6345b6bd8a7bd8af43f35c51e967895e0 BNB0.00013986
0x850354d2d06cb3926c2f6d6fac71941241f38b52e042906f786ec5b5e3fe2d47Transfer113054672021-09-28 10:34:2118 mins ago0x6ada8e0d6345b6bd8a7bd8af43f35c51e967895eSELF0x6ada8e0d6345b6bd8a7bd8af43f35c51e967895e0 BNB0.00016317
0x241f83bee4147d3564e9bed107eefd3173e879a62551a77f252ea32002db5c48Transfer113054472021-09-28 10:33:2119 mins ago0x6ada8e0d6345b6bd8a7bd8af43f35c51e967895eSELF0x6ada8e0d6345b6bd8a7bd8af43f35c51e967895e0 BNB0.00011655
0xf698672bd22c70ef6113f5ef7c267107fd116bcb15cbf70b92d83327db786f350x1de9c881113053992021-09-28 10:30:5721 mins ago0x6ada8e0d6345b6bd8a7bd8af43f35c51e967895eOUT 0x0c2c7de6c0cc1945dc0d0042d074dec960bde0180 BNB0.00018413
0x9f30f13aff521712462e3faea00d4093c7ed7d40325c08cbe169f0f4f92c112f0x1de9c881113052342021-09-28 10:22:4229 mins ago0x6ada8e0d6345b6bd8a7bd8af43f35c51e967895eOUT 0x0c2c7de6c0cc1945dc0d0042d074dec960bde0180 BNB0.000203255
0x3b369adb4a2e8ab8ea2b8dc89c931e1d06366dc55186dca1fcbed03e7c760d2d0x1de9c881113046892021-09-28 9:54:5257 mins ago0x6ada8e0d6345b6bd8a7bd8af43f35c51e967895eOUT 0x97ad69470cb7389d3ac388d2e2484dc381e2f44b0 BNB0.00021178025
0xb0bda3bf409e469ca868cf91be80c5efe0a4920a9137a1cfce8d853219630231Transfer113045412021-09-28 9:46:541 hr 5 mins ago0x6ada8e0d6345b6bd8a7bd8af43f35c51e967895eSELF0x6ada8e0d6345b6bd8a7bd8af43f35c51e967895e0 BNB0.00011655
0xe99a687ffb2811475774a411fabe8ea9740a501c4937d0f8c479de3bfabf9b08Transfer113045102021-09-28 9:45:211 hr 7 mins ago0x6ada8e0d6345b6bd8a7bd8af43f35c51e967895eSELF0x6ada8e0d6345b6bd8a7bd8af43f35c51e967895e0 BNB0.000118881
0x2a976819c19e4a5af2a67feeb5c1126c7e6ff02a595321ba3799078df9a8b0f2Transfer113043812021-09-28 9:38:491 hr 13 mins ago0x6ada8e0d6345b6bd8a7bd8af43f35c51e967895eSELF0x6ada8e0d6345b6bd8a7bd8af43f35c51e967895e0 BNB0.00016317
0x2c39a5cabfbfd355c4d4f8b732f6983473af0085c566daceea628b787f6627390x1de9c881113042732021-09-28 9:33:211 hr 19 mins ago0x6ada8e0d6345b6bd8a7bd8af43f35c51e967895eOUT 0x0cbbde4833cb3c7563d9a5433195619232e819640 BNB0.000289078378
0x05346ffa8d7f07790d52618ce8e275507d854c82ee694fa56c37340f9221f981Transfer113041772021-09-28 9:28:331 hr 24 mins ago0x6ada8e0d6345b6bd8a7bd8af43f35c51e967895eSELF0x6ada8e0d6345b6bd8a7bd8af43f35c51e967895e0 BNB0.00011655
0xf2723b403885a948657136bed0968bdc08ded0e4bc1851d455eb86f72b92f2e1Transfer113039612021-09-28 9:17:321 hr 35 mins ago0x6ada8e0d6345b6bd8a7bd8af43f35c51e967895eSELF0x6ada8e0d6345b6bd8a7bd8af43f35c51e967895e0 BNB0.00011655
0x1168dc73a16bd850924efeffc9fe5a28914b7a7e2c1fe59bfe9ab18246facfabTransfer113039342021-09-28 9:16:111 hr 36 mins ago0x6ada8e0d6345b6bd8a7bd8af43f35c51e967895eSELF0x6ada8e0d6345b6bd8a7bd8af43f35c51e967895e0 BNB0.00011655
0x5a7ad7cffd0366ba0aa8d505d68e4898f4f69bb273b928ad28db822b97cdc691Transfer113036882021-09-28 9:03:531 hr 48 mins ago0x6ada8e0d6345b6bd8a7bd8af43f35c51e967895eSELF0x6ada8e0d6345b6bd8a7bd8af43f35c51e967895e0 BNB0.00011655
0xa0e86396ec7c00dba44a9591a4146b276b08619fb1cb31524fb8a4176ed9c0180x1de9c881113035692021-09-28 8:57:561 hr 54 mins ago0x6ada8e0d6345b6bd8a7bd8af43f35c51e967895eOUT 0x0cbbde4833cb3c7563d9a5433195619232e819640 BNB0.000230025
0x513bb4e59c21801e77c83d47c462ba393dbcae2c0d7c326daf0a6da789e5cd0b0x1de9c881113035352021-09-28 8:56:141 hr 56 mins ago0x6ada8e0d6345b6bd8a7bd8af43f35c51e967895eOUT 0xbd2ec79f2a467813efefe02b8b195ed8187889060 BNB0.000202975
0xa8a58ff7d265c524798a4b5fd59c7e779d9f5097e7780b618a201131d37e36f2Transfer113033172021-09-28 8:45:202 hrs 7 mins ago0x6ada8e0d6345b6bd8a7bd8af43f35c51e967895eSELF0x6ada8e0d6345b6bd8a7bd8af43f35c51e967895e0 BNB0.000118881
0xa45c9efb778e4f12c238221e203923250bcd4a10413e90cee45d2c9d6d7f89580x1de9c881113032512021-09-28 8:42:022 hrs 10 mins ago0x6ada8e0d6345b6bd8a7bd8af43f35c51e967895eOUT 0x74cfcd9bc69b4a856ccf941b31fad9e3fac9107d0 BNB0.000184065
0x79f231072bc97f1fa2c7c8055e820b8fe0af9bb57820b4268aba853383e859e6Transfer113032012021-09-28 8:39:322 hrs 13 mins ago0x6ada8e0d6345b6bd8a7bd8af43f35c51e967895eSELF0x6ada8e0d6345b6bd8a7bd8af43f35c51e967895e0 BNB0.00011655
0x4a86bfad4ef8de4a381cfd51f7725adc49d09f9df6733baa8554053f143d1e140x1de9c881113031842021-09-28 8:38:412 hrs 14 mins ago0x6ada8e0d6345b6bd8a7bd8af43f35c51e967895eOUT 0xdb69c82fc6573b49272777d090211891673fdac70 BNB0.0002253945
0xcafb81ad87339492962f8369291cf085ed677740b30729af19a780f49b4dc8190x1de9c881113031022021-09-28 8:34:042 hrs 18 mins ago0x6ada8e0d6345b6bd8a7bd8af43f35c51e967895eOUT 0xbd2ec79f2a467813efefe02b8b195ed8187889060 BNB0.000203005
[ Download CSV Export 
Parent Txn Hash Block From To Value
Loading

Contract Name:
0 BNB

Compiler Version
0

Optimization Enabled:
0 BNB

Other Settings:
-NA-
Block Transaction Gas Used Reward
Age Block Fee Address BC Fee Address Voting Power Jailed Incoming
Block Uncle Number Difficulty Gas Used Reward
Loading
Loading
Make sure to use the "Vote Down" button for any spammy posts, and the "Vote Up" for interesting conversations.